createdAt,value
2022-09-15T00:01:13.787Z,8.80
2022-09-15T00:03:42.344Z,11.47
2022-09-15T00:06:11.097Z,15.47
2022-09-15T00:08:39.398Z,9.67
2022-09-15T00:11:11.087Z,9.00
2022-09-15T00:13:40.655Z,8.73
2022-09-15T00:16:12.563Z,10.60
2022-09-15T00:18:43.855Z,11.40
2022-09-15T00:21:15.378Z,9.87
2022-09-15T00:23:43.625Z,9.53
2022-09-15T00:26:16.422Z,10.77
2022-09-15T00:28:44.989Z,13.80
2022-09-15T00:31:15.591Z,15.83
2022-09-15T00:33:43.908Z,11.90
2022-09-15T00:36:14.242Z,16.10
2022-09-15T00:38:42.548Z,9.80
2022-09-15T00:41:13.914Z,12.13
2022-09-15T00:43:48.793Z,13.23
2022-09-15T00:46:18.715Z,10.70
2022-09-15T00:48:50.105Z,8.93
2022-09-15T00:51:24.182Z,10.63
2022-09-15T00:53:52.994Z,13.30
2022-09-15T00:56:23.382Z,12.83
2022-09-15T00:58:55.808Z,9.90
2022-09-15T01:01:26.968Z,10.33
2022-09-15T01:03:55.894Z,9.10
2022-09-15T01:06:32.308Z,11.87
2022-09-15T01:09:06.936Z,16.00
2022-09-15T01:11:36.579Z,11.03
2022-09-15T01:14:04.428Z,11.20
2022-09-15T01:16:43.184Z,11.40
2022-09-15T01:19:42.275Z,10.03
2022-09-15T01:22:28.896Z,11.13
2022-09-15T01:25:10.288Z,11.90
2022-09-15T01:28:19.247Z,11.63
2022-09-15T01:30:56.273Z,11.63
2022-09-15T01:33:31.283Z,12.77
2022-09-15T01:36:07.019Z,16.40
2022-09-15T01:38:41.451Z,15.90
2022-09-15T01:41:16.103Z,13.23
2022-09-15T01:43:51.543Z,10.30
2022-09-15T01:46:22.625Z,9.70
2022-09-15T01:48:53.358Z,15.13
2022-09-15T01:51:22.686Z,15.27
2022-09-15T01:53:52.640Z,13.07
2022-09-15T01:56:20.540Z,11.83
2022-09-15T01:58:51.449Z,11.23
2022-09-15T02:01:28.122Z,13.37
2022-09-15T02:04:00.670Z,10.70
2022-09-15T02:06:36.968Z,9.77
2022-09-15T02:09:12.815Z,10.97
2022-09-15T02:11:52.291Z,9.40
2022-09-15T02:14:35.359Z,10.60
2022-09-15T02:17:05.449Z,11.37
2022-09-15T02:19:37.275Z,15.70
2022-09-15T02:22:11.690Z,11.40
2022-09-15T02:24:43.378Z,11.90
2022-09-15T02:27:17.180Z,13.00
2022-09-15T02:29:48.741Z,11.93
2022-09-15T02:32:20.860Z,12.67
2022-09-15T02:34:51.979Z,17.73
2022-09-15T02:37:22.258Z,14.93
2022-09-15T02:39:57.972Z,13.90
2022-09-15T02:42:26.862Z,15.20
2022-09-15T02:44:54.975Z,18.53
2022-09-15T02:47:24.683Z,16.73
2022-09-15T02:49:52.992Z,15.13
2022-09-15T02:52:21.289Z,19.90
2022-09-15T02:54:50.393Z,15.93
2022-09-15T02:57:18.350Z,16.37
2022-09-15T03:00:18.045Z,17.63
2022-09-15T03:02:49.941Z,17.00
2022-09-15T03:05:20.140Z,16.53
2022-09-15T03:07:48.219Z,19.63
2022-09-15T03:10:16.357Z,15.33
2022-09-15T03:12:46.962Z,14.93
2022-09-15T03:15:17.606Z,23.33
2022-09-15T03:17:48.314Z,19.17
2022-09-15T03:20:20.022Z,21.03
2022-09-15T03:22:47.997Z,21.33
2022-09-15T03:25:15.798Z,20.90
2022-09-15T03:27:43.751Z,18.17
2022-09-15T03:30:13.701Z,19.57
2022-09-15T03:32:41.706Z,16.93
2022-09-15T03:35:11.675Z,20.33
2022-09-15T03:37:39.454Z,18.93
2022-09-15T03:40:09.245Z,24.20
2022-09-15T03:42:37.071Z,23.73
2022-09-15T03:45:05.400Z,15.37
2022-09-15T03:47:33.321Z,15.93
2022-09-15T03:50:01.080Z,20.13
2022-09-15T03:52:33.000Z,17.13
2022-09-15T03:55:00.822Z,16.47
2022-09-15T03:57:28.687Z,17.90
2022-09-15T03:59:56.621Z,23.20
2022-09-15T04:02:24.448Z,25.83
2022-09-15T04:04:52.232Z,19.57
2022-09-15T04:07:19.949Z,20.50
2022-09-15T04:09:49.296Z,20.83
2022-09-15T04:12:17.357Z,18.43
2022-09-15T04:14:45.102Z,21.97
2022-09-15T04:17:12.905Z,15.87
2022-09-15T04:19:40.713Z,17.57
2022-09-15T04:22:08.456Z,16.00
2022-09-15T04:24:36.300Z,16.50
2022-09-15T04:27:05.747Z,16.93
2022-09-15T04:29:33.494Z,18.23
2022-09-15T04:32:01.303Z,16.93
2022-09-15T04:34:29.110Z,21.40
2022-09-15T04:36:56.888Z,18.27
2022-09-15T04:39:25.497Z,23.47
2022-09-15T04:41:54.201Z,21.27
2022-09-15T04:44:23.451Z,24.93
2022-09-15T04:46:51.394Z,24.17
2022-09-15T04:49:19.349Z,19.90
2022-09-15T04:51:47.046Z,17.87
2022-09-15T04:54:14.916Z,18.07
2022-09-15T04:56:42.750Z,17.20
2022-09-15T04:59:15.505Z,22.33
2022-09-15T05:01:45.470Z,19.60
2022-09-15T05:04:13.528Z,22.83
2022-09-15T05:06:41.359Z,21.07
2022-09-15T05:09:10.599Z,21.90
2022-09-15T05:11:38.983Z,22.53
2022-09-15T05:14:06.930Z,29.20
2022-09-15T05:16:34.753Z,26.57
2022-09-15T05:19:04.886Z,24.53
2022-09-15T05:21:32.824Z,21.67
2022-09-15T05:24:00.868Z,21.07
2022-09-15T05:26:30.783Z,23.07
2022-09-15T05:28:58.753Z,24.53
2022-09-15T05:31:28.674Z,22.63
2022-09-15T05:33:56.598Z,17.43
2022-09-15T05:36:26.364Z,20.03
2022-09-15T05:38:56.435Z,25.37
2022-09-15T05:41:24.930Z,22.43
2022-09-15T05:43:54.385Z,23.80
2022-09-15T05:46:22.570Z,22.80
2022-09-15T05:48:50.465Z,21.13
2022-09-15T05:51:18.219Z,22.47
2022-09-15T05:53:47.266Z,23.20
2022-09-15T05:56:16.520Z,21.10
2022-09-15T05:58:46.793Z,24.83
2022-09-15T06:01:16.689Z,21.00
2022-09-15T06:03:44.981Z,24.43
2022-09-15T06:06:13.306Z,24.97
2022-09-15T06:08:44.446Z,24.13
2022-09-15T06:11:16.275Z,23.10
2022-09-15T06:13:44.639Z,24.17
2022-09-15T06:16:14.367Z,20.07
2022-09-15T06:18:42.926Z,21.23
2022-09-15T06:21:12.397Z,26.80
2022-09-15T06:23:40.704Z,21.30
2022-09-15T06:26:10.669Z,23.47
2022-09-15T06:28:42.106Z,24.90
2022-09-15T06:31:14.032Z,21.13
2022-09-15T06:33:44.186Z,19.60
2022-09-15T06:36:12.376Z,21.53
2022-09-15T06:38:40.732Z,17.40
2022-09-15T06:41:09.568Z,23.80
2022-09-15T06:43:39.422Z,22.33
2022-09-15T06:46:09.481Z,19.07
2022-09-15T06:48:37.891Z,30.03
2022-09-15T06:51:07.378Z,23.47
2022-09-15T06:53:38.072Z,23.27
2022-09-15T06:56:07.775Z,25.47
2022-09-15T06:58:36.739Z,25.00
2022-09-15T07:01:09.224Z,31.57
2022-09-15T07:03:38.115Z,26.13
2022-09-15T07:06:06.866Z,20.80
2022-09-15T07:08:36.549Z,25.80
2022-09-15T07:11:04.372Z,19.50
2022-09-15T07:13:32.488Z,18.17
2022-09-15T07:16:02.140Z,18.57
2022-09-15T07:18:32.004Z,15.60
2022-09-15T07:21:01.274Z,13.27
2022-09-15T07:23:29.450Z,10.50
2022-09-15T07:26:07.524Z,9.97
2022-09-15T07:28:35.868Z,11.67
2022-09-15T07:31:04.801Z,17.67
2022-09-15T07:33:34.946Z,16.80
2022-09-15T07:36:03.426Z,12.13
2022-09-15T07:38:31.575Z,12.60
2022-09-15T07:41:04.423Z,9.30
2022-09-15T07:43:32.241Z,8.97
2022-09-15T07:46:00.826Z,10.23
2022-09-15T07:48:29.424Z,8.97
2022-09-15T07:50:59.988Z,11.23
2022-09-15T07:53:29.402Z,8.83
2022-09-15T07:55:57.656Z,13.07
2022-09-15T07:58:25.832Z,11.43
2022-09-15T08:00:53.831Z,9.83
2022-09-15T08:03:21.630Z,14.47
2022-09-15T08:05:50.019Z,7.00
2022-09-15T08:08:19.284Z,13.30
2022-09-15T08:10:47.041Z,8.33
2022-09-15T08:13:14.903Z,10.67
2022-09-15T08:15:43.916Z,14.47
2022-09-15T08:18:12.279Z,12.43
2022-09-15T08:20:40.429Z,11.33
2022-09-15T08:23:08.310Z,12.97
2022-09-15T08:25:37.694Z,11.77
2022-09-15T08:28:05.908Z,13.80
2022-09-15T08:30:33.866Z,9.30
2022-09-15T08:33:01.606Z,15.20
2022-09-15T08:35:31.346Z,11.20
2022-09-15T08:37:59.350Z,11.10
2022-09-15T08:40:31.802Z,16.55
2022-09-15T08:43:07.363Z,8.95
2022-09-15T08:45:43.211Z,9.38
2022-09-15T08:48:25.309Z,6.78
2022-09-15T08:50:58.056Z,7.97
2022-09-15T08:53:30.979Z,9.75
2022-09-15T08:56:01.608Z,7.78
2022-09-15T08:58:32.559Z,6.40
2022-09-15T09:01:07.129Z,10.07
2022-09-15T09:03:48.691Z,7.68
2022-09-15T09:06:28.756Z,11.75
2022-09-15T09:09:19.029Z,9.02
2022-09-15T09:12:29.266Z,7.05
2022-09-15T09:15:20.248Z,8.80
2022-09-15T09:18:23.014Z,8.60
2022-09-15T09:20:59.845Z,4.18
2022-09-15T09:23:31.110Z,6.78
2022-09-15T09:26:00.560Z,6.75
2022-09-15T09:28:33.747Z,10.95
2022-09-15T09:31:07.177Z,3.90
2022-09-15T09:33:47.606Z,4.95
2022-09-15T09:36:16.176Z,6.70
2022-09-15T09:38:46.453Z,9.10
2022-09-15T09:41:18.093Z,5.65
2022-09-15T09:43:48.485Z,8.55
2022-09-15T09:46:20.288Z,6.18
2022-09-15T09:48:50.571Z,10.20
2022-09-15T09:51:39.880Z,8.65
2022-09-15T09:54:13.214Z,3.30
2022-09-15T09:56:41.308Z,6.18
2022-09-15T09:59:33.597Z,7.35
2022-09-15T10:02:16.805Z,10.00
2022-09-15T10:04:45.654Z,4.18
2022-09-15T10:07:15.416Z,12.98
2022-09-15T10:09:52.535Z,7.70
2022-09-15T10:12:29.257Z,10.98
2022-09-15T10:15:00.024Z,3.20
2022-09-15T10:17:40.749Z,11.73
2022-09-15T10:20:24.302Z,7.68
2022-09-15T10:22:52.530Z,7.03
2022-09-15T10:25:55.095Z,6.20
2022-09-15T10:28:23.258Z,4.68
2022-09-15T10:31:06.378Z,5.88
2022-09-15T10:33:36.701Z,4.75
2022-09-15T10:36:08.321Z,13.30
2022-09-15T10:38:43.721Z,5.22
2022-09-15T10:41:32.207Z,6.68
2022-09-15T10:44:27.398Z,5.00
2022-09-15T10:47:04.174Z,3.88
2022-09-15T10:49:49.362Z,8.25
2022-09-15T10:52:26.311Z,5.05
2022-09-15T10:55:27.794Z,7.30
2022-09-15T10:58:29.821Z,6.75
2022-09-15T11:01:10.536Z,5.00
2022-09-15T11:04:04.608Z,4.60
2022-09-15T11:06:40.331Z,6.75
2022-09-15T11:09:18.060Z,4.10
2022-09-15T11:11:54.703Z,9.55
2022-09-15T11:14:38.014Z,5.70
2022-09-15T11:17:20.696Z,8.50
2022-09-15T11:20:01.849Z,11.93
2022-09-15T11:22:35.762Z,5.72
2022-09-15T11:25:13.024Z,9.23
2022-09-15T11:27:43.613Z,7.68
2022-09-15T11:30:18.475Z,10.40
2022-09-15T11:32:52.966Z,9.18
2022-09-15T11:35:43.680Z,9.07
2022-09-15T11:38:22.812Z,8.60
2022-09-15T11:40:58.085Z,8.50
2022-09-15T11:43:33.977Z,10.82
2022-09-15T11:46:08.975Z,8.70
2022-09-15T11:48:43.986Z,6.78
2022-09-15T11:51:17.182Z,8.05
2022-09-15T11:53:52.914Z,9.68
2022-09-15T11:56:26.129Z,7.45
2022-09-15T11:59:05.630Z,8.48
2022-09-15T12:01:46.705Z,5.00
2022-09-15T12:04:21.517Z,7.80
2022-09-15T12:06:55.177Z,10.55
2022-09-15T12:09:24.819Z,4.88
2022-09-15T12:11:56.538Z,6.85
2022-09-15T12:14:31.800Z,5.30
2022-09-15T12:17:00.224Z,6.80
2022-09-15T12:19:45.832Z,6.45
2022-09-15T12:22:20.404Z,6.43
2022-09-15T12:25:00.783Z,3.13
2022-09-15T12:27:29.427Z,7.50
2022-09-15T12:29:59.667Z,4.25
2022-09-15T12:32:28.982Z,9.77
2022-09-15T12:34:59.297Z,6.15
2022-09-15T12:37:30.766Z,5.88
2022-09-15T12:40:00.021Z,5.55
2022-09-15T12:42:31.386Z,7.38
2022-09-15T12:45:01.695Z,2.85
2022-09-15T12:47:33.483Z,7.78
2022-09-15T12:50:24.202Z,5.22
2022-09-15T12:52:54.340Z,7.82
2022-09-15T12:55:26.838Z,5.00
2022-09-15T12:57:57.203Z,5.72
2022-09-15T13:00:49.886Z,2.67
2022-09-15T13:03:49.918Z,6.75
2022-09-15T13:06:21.325Z,5.40
2022-09-15T13:09:16.489Z,5.35
2022-09-15T13:11:51.177Z,3.42
2022-09-15T13:14:28.001Z,4.03
2022-09-15T13:17:00.971Z,9.95
2022-09-15T13:19:41.104Z,4.88
2022-09-15T13:22:19.903Z,6.88
2022-09-15T13:24:51.727Z,9.85
2022-09-15T13:27:24.337Z,6.90
2022-09-15T13:29:59.275Z,5.15
2022-09-15T13:32:37.217Z,5.05
2022-09-15T13:35:38.865Z,7.20
2022-09-15T13:38:32.491Z,5.72
2022-09-15T13:41:26.566Z,7.25
2022-09-15T13:44:29.570Z,8.27
2022-09-15T13:47:14.275Z,3.90
2022-09-15T13:49:56.972Z,4.53
2022-09-15T13:52:49.880Z,4.35
2022-09-15T13:55:23.229Z,3.03
2022-09-15T14:00:54.269Z,4.30
2022-09-15T14:03:25.963Z,5.95
2022-09-15T14:05:54.859Z,7.63
2022-09-15T14:08:26.145Z,6.38
2022-09-15T14:11:01.433Z,8.55
2022-09-15T14:13:31.397Z,6.75
2022-09-15T14:16:03.450Z,4.85
2022-09-15T14:18:32.220Z,4.05
2022-09-15T14:21:02.344Z,2.83
2022-09-15T14:23:30.966Z,5.30
2022-09-15T14:26:01.371Z,11.05
2022-09-15T14:28:32.300Z,2.95
2022-09-15T14:31:02.844Z,6.82
2022-09-15T14:33:38.126Z,4.30
2022-09-15T14:36:14.840Z,2.17
2022-09-15T14:38:45.228Z,9.65
2022-09-15T14:41:20.437Z,3.65
2022-09-15T14:43:48.323Z,7.82
2022-09-15T14:46:20.741Z,7.25
2022-09-15T14:48:48.652Z,5.90
2022-09-15T14:51:28.662Z,4.75
2022-09-15T14:54:00.002Z,6.20
2022-09-15T14:56:31.967Z,5.93
2022-09-15T14:59:04.452Z,6.13
2022-09-15T15:01:37.713Z,7.43
2022-09-15T15:04:12.205Z,7.85
2022-09-15T15:06:45.094Z,7.53
2022-09-15T15:09:22.514Z,8.07
2022-09-15T15:11:54.276Z,8.02
2022-09-15T15:17:05.837Z,5.88
2022-09-15T15:19:36.621Z,5.43
2022-09-15T15:22:09.742Z,6.97
2022-09-15T15:24:42.469Z,8.05
2022-09-15T15:27:43.112Z,10.07
2022-09-15T15:30:45.044Z,4.18
2022-09-15T15:33:24.214Z,4.43
2022-09-15T15:36:06.209Z,3.72
2022-09-15T15:38:46.388Z,4.22
2022-09-15T15:41:22.549Z,4.90
2022-09-15T15:43:58.635Z,7.22
2022-09-15T15:46:45.846Z,5.90
2022-09-15T15:49:15.147Z,3.38
2022-09-15T15:51:43.930Z,5.13
2022-09-15T15:54:11.974Z,6.00
2022-09-15T15:56:40.033Z,6.18
2022-09-15T15:59:07.854Z,3.67
2022-09-15T16:01:35.636Z,2.10
2022-09-15T16:04:03.970Z,4.10
2022-09-15T16:06:33.567Z,5.70
2022-09-15T16:09:03.317Z,5.55
2022-09-15T16:11:31.159Z,8.20
2022-09-15T16:13:59.516Z,7.07
2022-09-15T16:16:29.431Z,5.80
2022-09-15T16:18:57.250Z,5.13
2022-09-15T16:21:31.634Z,4.47
2022-09-15T16:24:00.765Z,13.27
2022-09-15T16:26:28.598Z,10.48
2022-09-15T16:28:56.303Z,19.73
2022-09-15T16:31:24.002Z,9.98
2022-09-15T16:33:51.999Z,6.65
2022-09-15T16:36:19.843Z,4.63
2022-09-15T16:38:47.676Z,7.18
2022-09-15T16:41:19.668Z,5.38
2022-09-15T16:43:48.287Z,4.47
2022-09-15T16:46:17.084Z,7.72
2022-09-15T16:48:47.127Z,5.97
2022-09-15T16:51:26.715Z,4.55
2022-09-15T16:53:56.812Z,7.32
2022-09-15T16:56:26.284Z,9.80
2022-09-15T16:59:00.289Z,5.82
2022-09-15T17:01:28.715Z,4.85
2022-09-15T17:03:56.591Z,4.68
2022-09-15T17:06:24.722Z,2.35
2022-09-15T17:08:52.524Z,3.30
2022-09-15T17:11:23.771Z,3.20
2022-09-15T17:13:55.419Z,5.43
2022-09-15T17:16:23.279Z,3.33
2022-09-15T17:18:51.187Z,4.22
2022-09-15T17:21:19.728Z,6.57
2022-09-15T17:23:49.269Z,10.05
2022-09-15T17:26:19.763Z,14.70
2022-09-15T17:28:47.912Z,8.73
2022-09-15T17:31:20.289Z,5.70
2022-09-15T17:33:49.609Z,5.25
2022-09-15T17:36:18.194Z,14.65
2022-09-15T17:38:47.990Z,8.13
2022-09-15T17:41:16.891Z,6.63
2022-09-15T17:43:44.638Z,3.22
2022-09-15T17:46:12.565Z,4.57
2022-09-15T17:48:41.866Z,6.40
2022-09-15T17:51:15.252Z,5.60
2022-09-15T17:53:45.200Z,7.18
2022-09-15T17:56:13.128Z,11.52
2022-09-15T17:58:41.479Z,13.80
2022-09-15T18:01:10.731Z,20.10
2022-09-15T18:03:38.678Z,17.40
2022-09-15T18:06:09.669Z,8.82
2022-09-15T18:08:38.197Z,9.10
2022-09-15T18:11:07.301Z,6.00
2022-09-15T18:13:35.351Z,4.65
2022-09-15T18:16:06.689Z,5.13
2022-09-15T18:18:34.787Z,6.68
2022-09-15T18:21:02.897Z,5.68
2022-09-15T18:23:32.081Z,4.32
2022-09-15T18:25:59.955Z,5.80
2022-09-15T18:28:28.006Z,8.32
2022-09-15T18:30:56.714Z,6.13
2022-09-15T18:33:26.639Z,4.93
2022-09-15T18:35:57.078Z,5.80
2022-09-15T18:38:24.829Z,4.70
2022-09-15T18:40:56.202Z,5.57
2022-09-15T18:43:26.496Z,2.65
2022-09-15T18:45:58.476Z,3.75
2022-09-15T18:48:26.285Z,3.43
2022-09-15T18:50:54.129Z,5.17
2022-09-15T18:53:21.932Z,2.53
2022-09-15T18:55:49.707Z,3.43
2022-09-15T18:58:19.230Z,6.33
2022-09-15T19:00:48.405Z,4.93
2022-09-15T19:03:16.181Z,6.47
2022-09-15T19:05:45.721Z,3.47
2022-09-15T19:08:13.523Z,5.30
2022-09-15T19:10:44.073Z,4.82
2022-09-15T19:13:14.031Z,4.50
2022-09-15T19:15:43.965Z,3.33
2022-09-15T19:18:12.009Z,4.53
2022-09-15T19:20:40.213Z,4.03
2022-09-15T19:23:07.983Z,5.40
2022-09-15T19:25:35.869Z,3.07
2022-09-15T19:28:04.685Z,4.90
2022-09-15T19:30:32.507Z,4.60
2022-09-15T19:33:02.646Z,6.10
2022-09-15T19:35:30.785Z,3.80
2022-09-15T19:37:58.573Z,5.00
2022-09-15T19:40:26.782Z,5.70
2022-09-15T19:42:54.753Z,4.63
2022-09-15T19:45:22.528Z,5.43
2022-09-15T19:47:50.250Z,3.70
2022-09-15T19:50:19.569Z,4.97
2022-09-15T19:52:47.408Z,4.73
2022-09-15T19:55:15.180Z,3.07
2022-09-15T19:57:43.725Z,5.37
2022-09-15T20:00:14.463Z,3.57
2022-09-15T20:02:44.889Z,5.73
2022-09-15T20:05:12.667Z,4.70
2022-09-15T20:07:41.764Z,5.63
2022-09-15T20:10:09.488Z,4.30
2022-09-15T20:12:37.250Z,3.73
2022-09-15T20:15:05.908Z,2.47
2022-09-15T20:17:33.978Z,5.00
2022-09-15T20:20:01.818Z,2.63
2022-09-15T20:22:29.637Z,3.13
2022-09-15T20:24:58.690Z,2.83
2022-09-15T20:27:26.426Z,2.90
2022-09-15T20:29:54.123Z,4.70
2022-09-15T20:32:27.535Z,5.07
2022-09-15T20:34:56.397Z,4.50
2022-09-15T20:37:24.208Z,4.17
2022-09-15T20:39:52.455Z,3.37
2022-09-15T20:42:21.588Z,3.87
2022-09-15T20:44:49.319Z,5.43
2022-09-15T20:47:17.119Z,5.27
2022-09-15T20:49:44.895Z,5.00
2022-09-15T20:52:12.689Z,3.03
2022-09-15T20:54:40.641Z,5.23
2022-09-15T20:57:09.387Z,5.57
2022-09-15T20:59:38.743Z,4.03
2022-09-15T21:02:07.423Z,11.03
2022-09-15T21:04:35.380Z,3.57
2022-09-15T21:07:03.144Z,5.63
2022-09-15T21:09:30.866Z,4.67
2022-09-15T21:11:58.624Z,5.47
2022-09-15T21:14:26.734Z,6.37
2022-09-15T21:16:55.895Z,3.07
2022-09-15T21:19:23.701Z,6.00
2022-09-15T21:21:51.676Z,4.40
2022-09-15T21:24:19.468Z,6.10
2022-09-15T21:27:04.600Z,3.37
2022-09-15T21:29:32.362Z,3.83
2022-09-15T21:32:01.530Z,4.70
2022-09-15T21:34:29.329Z,3.63
2022-09-15T21:36:57.918Z,5.10
2022-09-15T21:39:25.741Z,4.23
2022-09-15T21:41:54.106Z,3.83
2022-09-15T21:44:23.989Z,5.37
2022-09-15T21:46:52.670Z,2.30
2022-09-15T21:49:21.802Z,3.80
2022-09-15T21:51:49.534Z,3.77
2022-09-15T21:54:17.838Z,3.97
2022-09-15T21:56:45.649Z,2.83
2022-09-15T21:59:13.532Z,3.77
2022-09-15T22:01:41.841Z,5.20
2022-09-15T22:04:11.492Z,5.60
2022-09-15T22:06:41.760Z,4.73
2022-09-15T22:09:11.681Z,5.23
2022-09-15T22:11:39.814Z,6.23
2022-09-15T22:14:08.999Z,4.83
2022-09-15T22:16:38.383Z,8.13
2022-09-15T22:19:06.847Z,6.63
2022-09-15T22:21:36.880Z,6.03
2022-09-15T22:24:07.871Z,7.13
2022-09-15T22:26:37.943Z,8.03
2022-09-15T22:29:06.850Z,2.93
2022-09-15T22:31:35.601Z,6.27
2022-09-15T22:34:03.871Z,4.13
2022-09-15T22:36:32.659Z,4.67
2022-09-15T22:39:04.671Z,4.80
2022-09-15T22:41:36.187Z,5.90
2022-09-15T22:44:04.645Z,6.30
2022-09-15T22:46:33.509Z,5.70
2022-09-15T22:49:01.784Z,3.97
2022-09-15T22:51:29.689Z,3.13
2022-09-15T22:53:58.492Z,4.90
2022-09-15T22:56:27.723Z,3.70
2022-09-15T22:58:57.601Z,6.80
2022-09-15T23:01:27.420Z,5.37
2022-09-15T23:03:56.590Z,4.37
2022-09-15T23:06:25.349Z,7.63
2022-09-15T23:08:54.049Z,5.90
2022-09-15T23:11:22.263Z,3.03
2022-09-15T23:13:50.165Z,2.43
2022-09-15T23:16:19.561Z,3.87
2022-09-15T23:18:48.351Z,7.87
2022-09-15T23:21:16.490Z,3.83
2022-09-15T23:23:48.819Z,4.67
2022-09-15T23:26:18.887Z,4.10
2022-09-15T23:28:46.641Z,5.37
2022-09-15T23:31:14.887Z,2.27
2022-09-15T23:33:44.357Z,3.87
2022-09-15T23:36:14.790Z,3.13
2022-09-15T23:38:44.379Z,8.43
2022-09-15T23:41:13.438Z,3.97
2022-09-15T23:43:41.472Z,3.50
2022-09-15T23:46:09.478Z,3.67
2022-09-15T23:48:37.565Z,3.90
2022-09-15T23:51:06.988Z,5.73
2022-09-15T23:53:34.780Z,3.73
2022-09-15T23:56:03.205Z,6.07
2022-09-15T23:58:30.976Z,7.27
